sensor_id;sensor_type;location;lat;lon;timestamp;temperature;humidity
26947;DHT22;14501;52.282;10.560;2023-03-23T00:01:16;13.00;99.90
26947;DHT22;14501;52.282;10.560;2023-03-23T00:03:49;12.90;99.90
26947;DHT22;14501;52.282;10.560;2023-03-23T00:06:19;12.90;99.90
26947;DHT22;14501;52.282;10.560;2023-03-23T00:08:47;13.10;99.90
26947;DHT22;14501;52.282;10.560;2023-03-23T00:11:17;12.90;99.90
26947;DHT22;14501;52.282;10.560;2023-03-23T00:13:44;12.90;99.90
26947;DHT22;14501;52.282;10.560;2023-03-23T00:16:12;12.90;99.90
26947;DHT22;14501;52.282;10.560;2023-03-23T00:18:48;13.00;99.90
26947;DHT22;14501;52.282;10.560;2023-03-23T00:21:18;13.00;99.90
26947;DHT22;14501;52.282;10.560;2023-03-23T00:23:44;13.00;99.90
26947;DHT22;14501;52.282;10.560;2023-03-23T00:26:11;13.00;99.90
26947;DHT22;14501;52.282;10.560;2023-03-23T00:28:37;13.10;99.90
26947;DHT22;14501;52.282;10.560;2023-03-23T00:31:07;13.00;99.90
26947;DHT22;14501;52.282;10.560;2023-03-23T00:33:35;13.10;99.90
26947;DHT22;14501;52.282;10.560;2023-03-23T00:36:07;13.10;99.90
26947;DHT22;14501;52.282;10.560;2023-03-23T00:38:34;13.10;99.90
26947;DHT22;14501;52.282;10.560;2023-03-23T00:41:00;13.10;99.90
26947;DHT22;14501;52.282;10.560;2023-03-23T00:43:28;13.10;99.90
26947;DHT22;14501;52.282;10.560;2023-03-23T00:45:55;13.10;99.90
26947;DHT22;14501;52.282;10.560;2023-03-23T00:48:23;13.20;99.90
26947;DHT22;14501;52.282;10.560;2023-03-23T00:50:50;13.10;99.90
26947;DHT22;14501;52.282;10.560;2023-03-23T00:53:17;13.10;99.90
26947;DHT22;14501;52.282;10.560;2023-03-23T00:55:47;13.00;99.90
26947;DHT22;14501;52.282;10.560;2023-03-23T00:58:13;12.70;99.90
26947;DHT22;14501;52.282;10.560;2023-03-23T01:00:39;12.70;99.90
26947;DHT22;14501;52.282;10.560;2023-03-23T01:03:06;12.50;99.90
26947;DHT22;14501;52.282;10.560;2023-03-23T01:05:36;12.30;99.90
26947;DHT22;14501;52.282;10.560;2023-03-23T01:08:03;12.20;99.90
26947;DHT22;14501;52.282;10.560;2023-03-23T01:10:30;12.10;99.90
26947;DHT22;14501;52.282;10.560;2023-03-23T01:12:59;12.10;99.90
26947;DHT22;14501;52.282;10.560;2023-03-23T01:15:26;12.10;99.90
26947;DHT22;14501;52.282;10.560;2023-03-23T01:17:53;12.10;99.90
26947;DHT22;14501;52.282;10.560;2023-03-23T01:20:19;12.10;99.90
26947;DHT22;14501;52.282;10.560;2023-03-23T01:22:45;12.10;99.90
26947;DHT22;14501;52.282;10.560;2023-03-23T01:25:12;12.10;99.90
26947;DHT22;14501;52.282;10.560;2023-03-23T01:27:38;11.90;99.90
26947;DHT22;14501;52.282;10.560;2023-03-23T01:30:05;12.00;99.90
26947;DHT22;14501;52.282;10.560;2023-03-23T01:32:31;11.90;99.90
26947;DHT22;14501;52.282;10.560;2023-03-23T01:34:58;11.90;99.90
26947;DHT22;14501;52.282;10.560;2023-03-23T01:39:53;11.70;99.90
26947;DHT22;14501;52.282;10.560;2023-03-23T01:42:21;11.60;99.90
26947;DHT22;14501;52.282;10.560;2023-03-23T01:47:13;11.50;99.90
26947;DHT22;14501;52.282;10.560;2023-03-23T01:49:43;11.50;99.90
26947;DHT22;14501;52.282;10.560;2023-03-23T01:52:19;11.50;99.90
26947;DHT22;14501;52.282;10.560;2023-03-23T01:54:47;11.50;99.90
26947;DHT22;14501;52.282;10.560;2023-03-23T01:57:16;11.50;99.90
26947;DHT22;14501;52.282;10.560;2023-03-23T01:59:43;11.50;99.90
26947;DHT22;14501;52.282;10.560;2023-03-23T02:02:11;11.50;99.90
26947;DHT22;14501;52.282;10.560;2023-03-23T02:04:38;11.50;99.90
26947;DHT22;14501;52.282;10.560;2023-03-23T02:07:07;11.40;99.90
26947;DHT22;14501;52.282;10.560;2023-03-23T02:09:32;11.30;99.90
26947;DHT22;14501;52.282;10.560;2023-03-23T02:11:58;11.30;99.90
26947;DHT22;14501;52.282;10.560;2023-03-23T02:14:25;10.10;99.90
26947;DHT22;14501;52.282;10.560;2023-03-23T02:17:10;11.20;99.90
26947;DHT22;14501;52.282;10.560;2023-03-23T02:30:40;11.30;99.90
26947;DHT22;14501;52.282;10.560;2023-03-23T02:33:29;11.40;99.90
26947;DHT22;14501;52.282;10.560;2023-03-23T02:41:28;11.50;99.90
26947;DHT22;14501;52.282;10.560;2023-03-23T02:43:57;11.60;99.90
26947;DHT22;14501;52.282;10.560;2023-03-23T02:46:23;11.70;99.90
26947;DHT22;14501;52.282;10.560;2023-03-23T02:48:53;11.70;99.90
26947;DHT22;14501;52.282;10.560;2023-03-23T02:51:23;11.80;99.90
26947;DHT22;14501;52.282;10.560;2023-03-23T02:53:51;11.80;99.90
26947;DHT22;14501;52.282;10.560;2023-03-23T02:56:19;11.90;99.90
26947;DHT22;14501;52.282;10.560;2023-03-23T02:58:46;11.90;99.90
26947;DHT22;14501;52.282;10.560;2023-03-23T03:04:03;11.90;99.90
26947;DHT22;14501;52.282;10.560;2023-03-23T03:12:15;12.00;99.90
26947;DHT22;14501;52.282;10.560;2023-03-23T03:14:57;11.90;99.90
26947;DHT22;14501;52.282;10.560;2023-03-23T03:17:26;11.90;99.90
26947;DHT22;14501;52.282;10.560;2023-03-23T03:19:57;11.90;99.90
26947;DHT22;14501;52.282;10.560;2023-03-23T03:22:26;11.90;99.90
26947;DHT22;14501;52.282;10.560;2023-03-23T03:24:58;11.90;99.90
26947;DHT22;14501;52.282;10.560;2023-03-23T03:27:26;12.00;99.90
26947;DHT22;14501;52.282;10.560;2023-03-23T03:29:56;11.80;99.90
26947;DHT22;14501;52.282;10.560;2023-03-23T03:32:30;11.80;99.90
26947;DHT22;14501;52.282;10.560;2023-03-23T03:35:00;11.70;99.90
26947;DHT22;14501;52.282;10.560;2023-03-23T03:37:26;11.70;99.90
26947;DHT22;14501;52.282;10.560;2023-03-23T03:39:52;11.60;99.90
26947;DHT22;14501;52.282;10.560;2023-03-23T03:42:17;11.60;99.90
26947;DHT22;14501;52.282;10.560;2023-03-23T03:44:43;11.60;99.90
26947;DHT22;14501;52.282;10.560;2023-03-23T03:47:09;11.50;99.90
26947;DHT22;14501;52.282;10.560;2023-03-23T03:49:34;11.50;99.90
26947;DHT22;14501;52.282;10.560;2023-03-23T03:52:01;11.50;99.90
26947;DHT22;14501;52.282;10.560;2023-03-23T03:54:26;11.50;99.90
26947;DHT22;14501;52.282;10.560;2023-03-23T03:56:53;11.40;99.90
26947;DHT22;14501;52.282;10.560;2023-03-23T03:59:23;11.40;99.90
26947;DHT22;14501;52.282;10.560;2023-03-23T04:01:49;11.40;99.90
26947;DHT22;14501;52.282;10.560;2023-03-23T04:04:19;11.40;99.90
26947;DHT22;14501;52.282;10.560;2023-03-23T04:06:45;11.30;99.90
26947;DHT22;14501;52.282;10.560;2023-03-23T04:09:10;11.30;99.90
26947;DHT22;14501;52.282;10.560;2023-03-23T04:11:37;11.20;99.90
26947;DHT22;14501;52.282;10.560;2023-03-23T04:14:02;11.20;99.90
26947;DHT22;14501;52.282;10.560;2023-03-23T04:16:28;11.20;99.90
26947;DHT22;14501;52.282;10.560;2023-03-23T04:18:55;11.20;99.90
26947;DHT22;14501;52.282;10.560;2023-03-23T04:21:21;11.20;99.90
26947;DHT22;14501;52.282;10.560;2023-03-23T04:23:47;11.10;99.90
26947;DHT22;14501;52.282;10.560;2023-03-23T04:26:12;11.10;99.90
26947;DHT22;14501;52.282;10.560;2023-03-23T04:28:39;11.00;99.90
26947;DHT22;14501;52.282;10.560;2023-03-23T04:31:06;10.90;99.90
26947;DHT22;14501;52.282;10.560;2023-03-23T04:33:32;10.90;99.90
26947;DHT22;14501;52.282;10.560;2023-03-23T04:36:00;10.90;99.90
26947;DHT22;14501;52.282;10.560;2023-03-23T04:38:28;10.80;99.90
26947;DHT22;14501;52.282;10.560;2023-03-23T04:40:55;10.80;99.90
26947;DHT22;14501;52.282;10.560;2023-03-23T04:43:22;10.70;99.90
26947;DHT22;14501;52.282;10.560;2023-03-23T04:45:57;10.70;99.90
26947;DHT22;14501;52.282;10.560;2023-03-23T04:48:27;10.70;99.90
26947;DHT22;14501;52.282;10.560;2023-03-23T04:50:54;10.70;99.90
26947;DHT22;14501;52.282;10.560;2023-03-23T04:53:20;10.60;99.90
26947;DHT22;14501;52.282;10.560;2023-03-23T04:55:48;10.60;99.90
26947;DHT22;14501;52.282;10.560;2023-03-23T04:58:15;10.60;99.90
26947;DHT22;14501;52.282;10.560;2023-03-23T05:00:42;10.60;99.90
26947;DHT22;14501;52.282;10.560;2023-03-23T05:03:16;10.60;99.90
26947;DHT22;14501;52.282;10.560;2023-03-23T05:05:42;10.60;99.90
26947;DHT22;14501;52.282;10.560;2023-03-23T05:08:08;10.60;99.90
26947;DHT22;14501;52.282;10.560;2023-03-23T05:10:34;10.60;99.90
26947;DHT22;14501;52.282;10.560;2023-03-23T05:12:59;10.60;99.90
26947;DHT22;14501;52.282;10.560;2023-03-23T05:15:25;10.60;99.90
26947;DHT22;14501;52.282;10.560;2023-03-23T05:17:52;10.60;99.90
26947;DHT22;14501;52.282;10.560;2023-03-23T05:20:17;10.50;99.90
26947;DHT22;14501;52.282;10.560;2023-03-23T05:22:47;10.50;99.90
26947;DHT22;14501;52.282;10.560;2023-03-23T05:25:15;10.50;99.90
26947;DHT22;14501;52.282;10.560;2023-03-23T05:27:44;10.40;99.90
26947;DHT22;14501;52.282;10.560;2023-03-23T05:30:14;10.40;99.90
26947;DHT22;14501;52.282;10.560;2023-03-23T05:32:45;10.40;99.90
26947;DHT22;14501;52.282;10.560;2023-03-23T05:35:16;10.40;99.90
26947;DHT22;14501;52.282;10.560;2023-03-23T05:37:43;10.20;99.90
26947;DHT22;14501;52.282;10.560;2023-03-23T05:40:09;10.40;99.90
26947;DHT22;14501;52.282;10.560;2023-03-23T05:42:37;10.40;99.90
26947;DHT22;14501;52.282;10.560;2023-03-23T05:45:04;10.40;99.90
26947;DHT22;14501;52.282;10.560;2023-03-23T05:47:30;10.40;99.90
26947;DHT22;14501;52.282;10.560;2023-03-23T05:49:56;10.40;99.90
26947;DHT22;14501;52.282;10.560;2023-03-23T05:52:22;10.40;99.90
26947;DHT22;14501;52.282;10.560;2023-03-23T05:54:50;10.40;99.90
26947;DHT22;14501;52.282;10.560;2023-03-23T05:57:16;10.50;99.90
26947;DHT22;14501;52.282;10.560;2023-03-23T05:59:42;10.50;99.90
26947;DHT22;14501;52.282;10.560;2023-03-23T06:02:08;10.50;99.90
26947;DHT22;14501;52.282;10.560;2023-03-23T06:04:35;10.50;99.90
26947;DHT22;14501;52.282;10.560;2023-03-23T06:07:03;10.50;99.90
26947;DHT22;14501;52.282;10.560;2023-03-23T06:09:29;10.60;99.90
26947;DHT22;14501;52.282;10.560;2023-03-23T06:11:56;10.60;99.90
26947;DHT22;14501;52.282;10.560;2023-03-23T06:14:21;10.70;99.90
26947;DHT22;14501;52.282;10.560;2023-03-23T06:16:47;10.70;99.90
26947;DHT22;14501;52.282;10.560;2023-03-23T06:19:13;10.80;99.90
26947;DHT22;14501;52.282;10.560;2023-03-23T06:21:40;10.80;99.90
26947;DHT22;14501;52.282;10.560;2023-03-23T06:24:05;10.90;99.90
26947;DHT22;14501;52.282;10.560;2023-03-23T06:26:37;11.00;99.90
26947;DHT22;14501;52.282;10.560;2023-03-23T06:29:04;11.10;99.90
26947;DHT22;14501;52.282;10.560;2023-03-23T06:31:37;11.20;99.90
26947;DHT22;14501;52.282;10.560;2023-03-23T06:34:04;11.30;99.90
26947;DHT22;14501;52.282;10.560;2023-03-23T06:36:29;11.40;99.90
26947;DHT22;14501;52.282;10.560;2023-03-23T06:38:56;11.50;99.90
26947;DHT22;14501;52.282;10.560;2023-03-23T06:41:21;11.50;99.90
26947;DHT22;14501;52.282;10.560;2023-03-23T06:43:47;11.50;99.90
26947;DHT22;14501;52.282;10.560;2023-03-23T06:46:13;11.60;99.90
26947;DHT22;14501;52.282;10.560;2023-03-23T06:48:38;11.70;99.90
26947;DHT22;14501;52.282;10.560;2023-03-23T06:51:04;11.70;99.90
26947;DHT22;14501;52.282;10.560;2023-03-23T06:53:31;11.80;99.90
26947;DHT22;14501;52.282;10.560;2023-03-23T06:55:56;11.80;99.90
26947;DHT22;14501;52.282;10.560;2023-03-23T06:58:22;11.90;99.90
26947;DHT22;14501;52.282;10.560;2023-03-23T07:00:56;11.90;99.90
26947;DHT22;14501;52.282;10.560;2023-03-23T07:03:24;11.90;99.90
26947;DHT22;14501;52.282;10.560;2023-03-23T07:05:51;11.90;99.90
26947;DHT22;14501;52.282;10.560;2023-03-23T07:08:17;12.00;99.90
26947;DHT22;14501;52.282;10.560;2023-03-23T07:10:42;12.00;99.90
26947;DHT22;14501;52.282;10.560;2023-03-23T07:13:09;12.10;99.90
26947;DHT22;14501;52.282;10.560;2023-03-23T07:15:34;12.20;99.90
26947;DHT22;14501;52.282;10.560;2023-03-23T07:18:01;12.50;99.90
26947;DHT22;14501;52.282;10.560;2023-03-23T07:20:26;12.60;99.90
26947;DHT22;14501;52.282;10.560;2023-03-23T07:22:54;12.70;99.90
26947;DHT22;14501;52.282;10.560;2023-03-23T07:25:20;12.90;99.90
26947;DHT22;14501;52.282;10.560;2023-03-23T07:27:46;13.10;99.90
26947;DHT22;14501;52.282;10.560;2023-03-23T07:30:13;13.20;99.90
26947;DHT22;14501;52.282;10.560;2023-03-23T07:32:40;13.20;99.90
26947;DHT22;14501;52.282;10.560;2023-03-23T07:35:07;13.20;99.90
26947;DHT22;14501;52.282;10.560;2023-03-23T07:37:33;13.20;99.90
26947;DHT22;14501;52.282;10.560;2023-03-23T07:39:59;13.20;99.90
26947;DHT22;14501;52.282;10.560;2023-03-23T07:42:25;13.20;99.90
26947;DHT22;14501;52.282;10.560;2023-03-23T07:44:50;13.10;99.90
26947;DHT22;14501;52.282;10.560;2023-03-23T07:47:16;13.00;99.90
26947;DHT22;14501;52.282;10.560;2023-03-23T07:49:43;13.10;99.90
26947;DHT22;14501;52.282;10.560;2023-03-23T07:52:08;13.20;99.90
26947;DHT22;14501;52.282;10.560;2023-03-23T07:54:36;13.30;99.90
26947;DHT22;14501;52.282;10.560;2023-03-23T07:57:02;13.50;99.90
26947;DHT22;14501;52.282;10.560;2023-03-23T07:59:27;13.70;99.90
26947;DHT22;14501;52.282;10.560;2023-03-23T08:01:53;13.90;99.90
26947;DHT22;14501;52.282;10.560;2023-03-23T08:04:19;14.10;99.90
26947;DHT22;14501;52.282;10.560;2023-03-23T08:06:44;14.30;99.90
26947;DHT22;14501;52.282;10.560;2023-03-23T08:09:10;14.60;99.90
26947;DHT22;14501;52.282;10.560;2023-03-23T08:11:37;14.90;99.90
26947;DHT22;14501;52.282;10.560;2023-03-23T08:14:03;15.10;99.90
26947;DHT22;14501;52.282;10.560;2023-03-23T08:16:31;15.10;99.90
26947;DHT22;14501;52.282;10.560;2023-03-23T08:18:57;15.20;99.90
26947;DHT22;14501;52.282;10.560;2023-03-23T08:21:23;15.40;99.90
26947;DHT22;14501;52.282;10.560;2023-03-23T08:23:48;15.30;99.90
26947;DHT22;14501;52.282;10.560;2023-03-23T08:26:14;15.40;99.90
26947;DHT22;14501;52.282;10.560;2023-03-23T08:28:40;15.40;99.90
26947;DHT22;14501;52.282;10.560;2023-03-23T08:31:12;15.50;99.90
26947;DHT22;14501;52.282;10.560;2023-03-23T08:33:39;15.50;99.90
26947;DHT22;14501;52.282;10.560;2023-03-23T08:36:06;15.60;99.90
26947;DHT22;14501;52.282;10.560;2023-03-23T08:38:33;15.40;99.90
26947;DHT22;14501;52.282;10.560;2023-03-23T08:41:00;15.60;99.90
26947;DHT22;14501;52.282;10.560;2023-03-23T08:43:26;16.10;99.90
26947;DHT22;14501;52.282;10.560;2023-03-23T08:45:53;16.70;99.90
26947;DHT22;14501;52.282;10.560;2023-03-23T08:48:20;17.10;99.90
26947;DHT22;14501;52.282;10.560;2023-03-23T08:50:45;17.00;99.90
26947;DHT22;14501;52.282;10.560;2023-03-23T08:53:11;16.40;99.90
26947;DHT22;14501;52.282;10.560;2023-03-23T08:55:37;16.10;99.90
26947;DHT22;14501;52.282;10.560;2023-03-23T08:58:04;15.80;99.90
26947;DHT22;14501;52.282;10.560;2023-03-23T09:00:30;15.60;99.90
26947;DHT22;14501;52.282;10.560;2023-03-23T09:02:56;15.40;99.90
26947;DHT22;14501;52.282;10.560;2023-03-23T09:05:25;15.40;99.90
26947;DHT22;14501;52.282;10.560;2023-03-23T09:07:53;15.50;99.90
26947;DHT22;14501;52.282;10.560;2023-03-23T09:10:20;15.60;99.90
26947;DHT22;14501;52.282;10.560;2023-03-23T09:12:46;15.40;99.90
26947;DHT22;14501;52.282;10.560;2023-03-23T09:15:16;15.60;99.90
26947;DHT22;14501;52.282;10.560;2023-03-23T09:17:45;16.40;99.90
26947;DHT22;14501;52.282;10.560;2023-03-23T09:20:13;15.70;99.90
26947;DHT22;14501;52.282;10.560;2023-03-23T09:22:43;16.00;99.90
26947;DHT22;14501;52.282;10.560;2023-03-23T09:25:12;16.20;99.90
26947;DHT22;14501;52.282;10.560;2023-03-23T09:27:39;16.30;99.90
26947;DHT22;14501;52.282;10.560;2023-03-23T09:30:07;16.30;99.90
26947;DHT22;14501;52.282;10.560;2023-03-23T09:32:34;16.10;99.90
26947;DHT22;14501;52.282;10.560;2023-03-23T09:35:04;16.10;99.90
26947;DHT22;14501;52.282;10.560;2023-03-23T09:37:32;15.70;99.90
26947;DHT22;14501;52.282;10.560;2023-03-23T09:39:58;15.70;99.90
26947;DHT22;14501;52.282;10.560;2023-03-23T09:42:58;15.60;99.90
26947;DHT22;14501;52.282;10.560;2023-03-23T09:45:33;15.50;99.90
26947;DHT22;14501;52.282;10.560;2023-03-23T09:50:56;15.70;99.90
26947;DHT22;14501;52.282;10.560;2023-03-23T09:53:24;15.50;99.90
26947;DHT22;14501;52.282;10.560;2023-03-23T09:55:53;15.60;99.90
26947;DHT22;14501;52.282;10.560;2023-03-23T09:58:35;15.70;99.90
26947;DHT22;14501;52.282;10.560;2023-03-23T10:01:06;15.60;99.90
26947;DHT22;14501;52.282;10.560;2023-03-23T10:03:44;15.60;99.90
26947;DHT22;14501;52.282;10.560;2023-03-23T10:06:15;15.70;99.90
26947;DHT22;14501;52.282;10.560;2023-03-23T10:08:50;15.60;99.90
26947;DHT22;14501;52.282;10.560;2023-03-23T10:11:19;15.60;99.90
26947;DHT22;14501;52.282;10.560;2023-03-23T10:16:27;15.70;99.90
26947;DHT22;14501;52.282;10.560;2023-03-23T10:19:08;15.80;99.90
26947;DHT22;14501;52.282;10.560;2023-03-23T10:21:39;15.70;99.90
26947;DHT22;14501;52.282;10.560;2023-03-23T10:24:10;15.70;99.90
26947;DHT22;14501;52.282;10.560;2023-03-23T10:29:42;15.70;99.90
26947;DHT22;14501;52.282;10.560;2023-03-23T10:32:18;15.80;99.90
26947;DHT22;14501;52.282;10.560;2023-03-23T10:35:01;15.80;99.90
26947;DHT22;14501;52.282;10.560;2023-03-23T10:37:32;15.80;99.90
26947;DHT22;14501;52.282;10.560;2023-03-23T10:40:03;15.80;99.90
26947;DHT22;14501;52.282;10.560;2023-03-23T10:42:36;16.00;99.90
26947;DHT22;14501;52.282;10.560;2023-03-23T10:45:19;16.10;99.90
26947;DHT22;14501;52.282;10.560;2023-03-23T10:48:01;16.20;99.90
26947;DHT22;14501;52.282;10.560;2023-03-23T10:50:35;16.40;99.90
26947;DHT22;14501;52.282;10.560;2023-03-23T10:53:16;16.60;99.90
26947;DHT22;14501;52.282;10.560;2023-03-23T10:55:42;16.70;99.90
26947;DHT22;14501;52.282;10.560;2023-03-23T10:58:12;16.80;99.90
26947;DHT22;14501;52.282;10.560;2023-03-23T11:00:43;16.70;99.90
26947;DHT22;14501;52.282;10.560;2023-03-23T11:08:20;16.20;99.90
26947;DHT22;14501;52.282;10.560;2023-03-23T11:11:10;16.10;99.90
26947;DHT22;14501;52.282;10.560;2023-03-23T11:13:43;15.90;99.90
26947;DHT22;14501;52.282;10.560;2023-03-23T11:16:10;15.90;99.90
26947;DHT22;14501;52.282;10.560;2023-03-23T11:18:40;16.00;99.90
26947;DHT22;14501;52.282;10.560;2023-03-23T11:21:07;15.90;99.90
26947;DHT22;14501;52.282;10.560;2023-03-23T11:23:40;16.60;99.90
26947;DHT22;14501;52.282;10.560;2023-03-23T11:28:58;16.60;99.90
26947;DHT22;14501;52.282;10.560;2023-03-23T11:32:04;17.30;99.90
26947;DHT22;14501;52.282;10.560;2023-03-23T11:34:44;18.10;99.90
26947;DHT22;14501;52.282;10.560;2023-03-23T11:37:19;18.20;99.90
26947;DHT22;14501;52.282;10.560;2023-03-23T11:39:59;18.50;99.90
26947;DHT22;14501;52.282;10.560;2023-03-23T11:45:22;19.50;99.90
26947;DHT22;14501;52.282;10.560;2023-03-23T11:50:29;20.00;99.90
26947;DHT22;14501;52.282;10.560;2023-03-23T11:53:06;20.00;99.90
26947;DHT22;14501;52.282;10.560;2023-03-23T11:58:15;20.00;99.90
26947;DHT22;14501;52.282;10.560;2023-03-23T12:09:08;19.70;99.90
26947;DHT22;14501;52.282;10.560;2023-03-23T12:17:20;19.70;99.90
26947;DHT22;14501;52.282;10.560;2023-03-23T12:22:45;19.90;99.90
26947;DHT22;14501;52.282;10.560;2023-03-23T12:39:05;18.80;99.90
26947;DHT22;14501;52.282;10.560;2023-03-23T12:44:21;18.90;99.90
26947;DHT22;14501;52.282;10.560;2023-03-23T12:52:18;18.30;99.90
26947;DHT22;14501;52.282;10.560;2023-03-23T13:00:20;17.60;99.90
26947;DHT22;14501;52.282;10.560;2023-03-23T13:05:41;16.70;99.90
26947;DHT22;14501;52.282;10.560;2023-03-23T13:10:46;16.50;99.90
26947;DHT22;14501;52.282;10.560;2023-03-23T13:13:24;16.30;99.90
26947;DHT22;14501;52.282;10.560;2023-03-23T13:16:14;16.10;99.90
26947;DHT22;14501;52.282;10.560;2023-03-23T13:21:31;15.90;99.90
26947;DHT22;14501;52.282;10.560;2023-03-23T13:24:10;15.90;99.90
26947;DHT22;14501;52.282;10.560;2023-03-23T13:26:40;16.00;99.90
26947;DHT22;14501;52.282;10.560;2023-03-23T13:29:13;16.00;99.90
26947;DHT22;14501;52.282;10.560;2023-03-23T13:31:41;16.20;99.90
26947;DHT22;14501;52.282;10.560;2023-03-23T13:39:38;15.80;99.90
26947;DHT22;14501;52.282;10.560;2023-03-23T13:49:51;15.10;99.90
26947;DHT22;14501;52.282;10.560;2023-03-23T13:54:48;14.80;99.90
26947;DHT22;14501;52.282;10.560;2023-03-23T13:57:33;14.70;99.90
26947;DHT22;14501;52.282;10.560;2023-03-23T14:02:49;14.80;99.90
26947;DHT22;14501;52.282;10.560;2023-03-23T14:13:19;15.70;99.90
26947;DHT22;14501;52.282;10.560;2023-03-23T14:16:21;15.70;99.90
26947;DHT22;14501;52.282;10.560;2023-03-23T14:18:52;15.80;99.90
26947;DHT22;14501;52.282;10.560;2023-03-23T14:21:33;16.10;99.90
26947;DHT22;14501;52.282;10.560;2023-03-23T14:24:17;16.40;99.90
26947;DHT22;14501;52.282;10.560;2023-03-23T14:26:43;16.30;99.90
26947;DHT22;14501;52.282;10.560;2023-03-23T14:29:12;16.40;99.90
26947;DHT22;14501;52.282;10.560;2023-03-23T14:31:38;16.40;99.90
26947;DHT22;14501;52.282;10.560;2023-03-23T14:34:13;16.20;99.90
26947;DHT22;14501;52.282;10.560;2023-03-23T14:36:39;16.20;99.90
26947;DHT22;14501;52.282;10.560;2023-03-23T14:39:18;16.10;99.90
26947;DHT22;14501;52.282;10.560;2023-03-23T14:41:45;15.90;99.90
26947;DHT22;14501;52.282;10.560;2023-03-23T14:44:15;15.30;99.90
26947;DHT22;14501;52.282;10.560;2023-03-23T14:46:43;15.20;99.90
26947;DHT22;14501;52.282;10.560;2023-03-23T14:49:13;15.00;99.90
26947;DHT22;14501;52.282;10.560;2023-03-23T14:51:50;14.80;99.90
26947;DHT22;14501;52.282;10.560;2023-03-23T14:54:26;14.30;99.90
26947;DHT22;14501;52.282;10.560;2023-03-23T14:56:53;14.20;99.90
26947;DHT22;14501;52.282;10.560;2023-03-23T14:59:19;14.20;99.90
26947;DHT22;14501;52.282;10.560;2023-03-23T15:01:47;14.10;99.90
26947;DHT22;14501;52.282;10.560;2023-03-23T15:04:17;13.80;99.90
26947;DHT22;14501;52.282;10.560;2023-03-23T15:06:47;13.70;99.90
26947;DHT22;14501;52.282;10.560;2023-03-23T15:09:18;13.30;99.90
26947;DHT22;14501;52.282;10.560;2023-03-23T15:12:01;13.20;99.90
26947;DHT22;14501;52.282;10.560;2023-03-23T15:14:48;13.00;99.90
26947;DHT22;14501;52.282;10.560;2023-03-23T15:17:36;12.70;99.90
26947;DHT22;14501;52.282;10.560;2023-03-23T15:20:11;12.60;99.90
26947;DHT22;14501;52.282;10.560;2023-03-23T15:22:48;12.40;99.90
26947;DHT22;14501;52.282;10.560;2023-03-23T15:25:20;12.20;99.90
26947;DHT22;14501;52.282;10.560;2023-03-23T15:27:51;12.20;99.90
26947;DHT22;14501;52.282;10.560;2023-03-23T15:32:54;12.40;99.90
26947;DHT22;14501;52.282;10.560;2023-03-23T15:35:23;12.50;99.90
26947;DHT22;14501;52.282;10.560;2023-03-23T15:40:43;12.50;99.90
26947;DHT22;14501;52.282;10.560;2023-03-23T15:46:00;12.70;99.90
26947;DHT22;14501;52.282;10.560;2023-03-23T15:48:33;12.50;99.90
26947;DHT22;14501;52.282;10.560;2023-03-23T15:51:02;12.90;99.90
26947;DHT22;14501;52.282;10.560;2023-03-23T15:53:34;13.00;99.90
26947;DHT22;14501;52.282;10.560;2023-03-23T15:56:02;13.10;99.90
26947;DHT22;14501;52.282;10.560;2023-03-23T15:58:29;13.10;99.90
26947;DHT22;14501;52.282;10.560;2023-03-23T16:00:55;13.00;99.90
26947;DHT22;14501;52.282;10.560;2023-03-23T16:03:49;13.00;99.90
26947;DHT22;14501;52.282;10.560;2023-03-23T16:06:18;12.90;99.90
26947;DHT22;14501;52.282;10.560;2023-03-23T16:08:43;12.80;99.90
26947;DHT22;14501;52.282;10.560;2023-03-23T16:11:15;12.50;99.90
26947;DHT22;14501;52.282;10.560;2023-03-23T16:13:41;12.50;99.90
26947;DHT22;14501;52.282;10.560;2023-03-23T16:18:47;12.50;99.90
26947;DHT22;14501;52.282;10.560;2023-03-23T16:21:13;12.70;99.90
26947;DHT22;14501;52.282;10.560;2023-03-23T16:23:38;12.80;99.90
26947;DHT22;14501;52.282;10.560;2023-03-23T16:26:05;12.90;99.90
26947;DHT22;14501;52.282;10.560;2023-03-23T16:28:31;12.90;99.90
26947;DHT22;14501;52.282;10.560;2023-03-23T16:30:57;12.70;99.90
26947;DHT22;14501;52.282;10.560;2023-03-23T16:33:22;13.00;99.90
26947;DHT22;14501;52.282;10.560;2023-03-23T16:35:48;12.90;99.90
26947;DHT22;14501;52.282;10.560;2023-03-23T16:38:15;12.80;99.90
26947;DHT22;14501;52.282;10.560;2023-03-23T16:40:42;12.70;99.90
26947;DHT22;14501;52.282;10.560;2023-03-23T16:43:08;12.40;99.90
26947;DHT22;14501;52.282;10.560;2023-03-23T16:48:00;12.40;99.90
26947;DHT22;14501;52.282;10.560;2023-03-23T16:50:27;12.50;99.90
26947;DHT22;14501;52.282;10.560;2023-03-23T16:52:54;13.00;99.90
26947;DHT22;14501;52.282;10.560;2023-03-23T16:57:46;12.60;99.90
26947;DHT22;14501;52.282;10.560;2023-03-23T17:00:16;12.60;99.90
26947;DHT22;14501;52.282;10.560;2023-03-23T17:02:49;12.40;99.90
26947;DHT22;14501;52.282;10.560;2023-03-23T17:05:17;12.30;99.90
26947;DHT22;14501;52.282;10.560;2023-03-23T17:07:44;12.20;99.90
26947;DHT22;14501;52.282;10.560;2023-03-23T17:10:11;12.20;99.90
26947;DHT22;14501;52.282;10.560;2023-03-23T17:12:37;12.10;99.90
26947;DHT22;14501;52.282;10.560;2023-03-23T17:15:03;12.00;99.90
26947;DHT22;14501;52.282;10.560;2023-03-23T17:17:29;11.80;99.90
26947;DHT22;14501;52.282;10.560;2023-03-23T17:19:55;11.70;99.90
26947;DHT22;14501;52.282;10.560;2023-03-23T17:22:21;11.80;99.90
26947;DHT22;14501;52.282;10.560;2023-03-23T17:24:46;11.70;99.90
26947;DHT22;14501;52.282;10.560;2023-03-23T17:27:14;11.60;99.90
26947;DHT22;14501;52.282;10.560;2023-03-23T17:32:05;11.60;99.90
26947;DHT22;14501;52.282;10.560;2023-03-23T17:34:31;11.50;99.90
26947;DHT22;14501;52.282;10.560;2023-03-23T17:36:57;11.50;99.90
26947;DHT22;14501;52.282;10.560;2023-03-23T17:39:22;11.40;99.90
26947;DHT22;14501;52.282;10.560;2023-03-23T17:41:48;11.50;99.90
26947;DHT22;14501;52.282;10.560;2023-03-23T17:44:13;11.60;99.90
26947;DHT22;14501;52.282;10.560;2023-03-23T17:46:39;11.60;99.90
26947;DHT22;14501;52.282;10.560;2023-03-23T17:49:05;11.70;99.90
26947;DHT22;14501;52.282;10.560;2023-03-23T17:53:57;11.70;99.90
26947;DHT22;14501;52.282;10.560;2023-03-23T17:58:49;11.80;99.90
26947;DHT22;14501;52.282;10.560;2023-03-23T18:01:15;12.00;99.90
26947;DHT22;14501;52.282;10.560;2023-03-23T18:06:07;11.90;99.90